sensor_id;sensor_type;location;lat;lon;timestamp;P1;durP1;ratioP1;P2;durP2;ratioP2
3597;SDS011;1813;52.016;8.714;2023-05-23T00:00:49;38.13;;;26.80;;
3597;SDS011;1813;52.016;8.714;2023-05-23T00:03:23;38.97;;;27.67;;
3597;SDS011;1813;52.016;8.714;2023-05-23T00:06:00;43.80;;;28.70;;
3597;SDS011;1813;52.016;8.714;2023-05-23T00:08:34;36.27;;;26.97;;
3597;SDS011;1813;52.016;8.714;2023-05-23T00:11:08;34.17;;;25.30;;
3597;SDS011;1813;52.016;8.714;2023-05-23T00:13:42;32.30;;;25.00;;
3597;SDS011;1813;52.016;8.714;2023-05-23T00:16:16;38.20;;;25.83;;
3597;SDS011;1813;52.016;8.714;2023-05-23T00:18:50;33.27;;;24.77;;
3597;SDS011;1813;52.016;8.714;2023-05-23T00:21:32;39.23;;;25.20;;
3597;SDS011;1813;52.016;8.714;2023-05-23T00:24:06;34.07;;;24.77;;
3597;SDS011;1813;52.016;8.714;2023-05-23T00:26:39;33.73;;;25.00;;
3597;SDS011;1813;52.016;8.714;2023-05-23T00:29:13;38.70;;;25.70;;
3597;SDS011;1813;52.016;8.714;2023-05-23T00:31:49;35.33;;;24.83;;
3597;SDS011;1813;52.016;8.714;2023-05-23T00:34:22;41.93;;;24.73;;
3597;SDS011;1813;52.016;8.714;2023-05-23T00:36:59;35.90;;;25.40;;
3597;SDS011;1813;52.016;8.714;2023-05-23T00:39:33;36.17;;;25.40;;
3597;SDS011;1813;52.016;8.714;2023-05-23T00:42:07;38.50;;;25.40;;
3597;SDS011;1813;52.016;8.714;2023-05-23T00:44:41;35.87;;;25.37;;
3597;SDS011;1813;52.016;8.714;2023-05-23T00:47:14;34.03;;;25.73;;
3597;SDS011;1813;52.016;8.714;2023-05-23T00:49:48;43.50;;;27.27;;
3597;SDS011;1813;52.016;8.714;2023-05-23T00:52:25;37.50;;;27.03;;
3597;SDS011;1813;52.016;8.714;2023-05-23T00:54:58;43.30;;;26.60;;
3597;SDS011;1813;52.016;8.714;2023-05-23T00:57:32;37.60;;;26.10;;
3597;SDS011;1813;52.016;8.714;2023-05-23T01:00:10;36.83;;;27.00;;
3597;SDS011;1813;52.016;8.714;2023-05-23T01:02:46;41.90;;;27.63;;
3597;SDS011;1813;52.016;8.714;2023-05-23T01:05:21;45.20;;;28.47;;
3597;SDS011;1813;52.016;8.714;2023-05-23T01:07:58;41.90;;;29.07;;
3597;SDS011;1813;52.016;8.714;2023-05-23T01:10:32;40.50;;;29.57;;
3597;SDS011;1813;52.016;8.714;2023-05-23T01:13:09;42.47;;;30.40;;
3597;SDS011;1813;52.016;8.714;2023-05-23T01:15:52;41.40;;;29.33;;
3597;SDS011;1813;52.016;8.714;2023-05-23T01:18:32;44.00;;;31.00;;
3597;SDS011;1813;52.016;8.714;2023-05-23T01:21:11;43.40;;;30.80;;
3597;SDS011;1813;52.016;8.714;2023-05-23T01:24:06;45.70;;;31.67;;
3597;SDS011;1813;52.016;8.714;2023-05-23T01:27:00;47.53;;;32.30;;
3597;SDS011;1813;52.016;8.714;2023-05-23T01:29:44;49.23;;;32.60;;
3597;SDS011;1813;52.016;8.714;2023-05-23T01:32:19;49.87;;;31.00;;
3597;SDS011;1813;52.016;8.714;2023-05-23T01:34:55;43.13;;;29.70;;
3597;SDS011;1813;52.016;8.714;2023-05-23T01:37:30;43.57;;;29.80;;
3597;SDS011;1813;52.016;8.714;2023-05-23T01:40:04;46.00;;;32.10;;
3597;SDS011;1813;52.016;8.714;2023-05-23T01:42:40;40.60;;;29.63;;
3597;SDS011;1813;52.016;8.714;2023-05-23T01:45:16;44.17;;;30.00;;
3597;SDS011;1813;52.016;8.714;2023-05-23T01:47:51;51.27;;;31.20;;
3597;SDS011;1813;52.016;8.714;2023-05-23T01:50:26;51.40;;;31.30;;
3597;SDS011;1813;52.016;8.714;2023-05-23T01:53:01;46.77;;;30.53;;
3597;SDS011;1813;52.016;8.714;2023-05-23T01:55:35;50.90;;;30.83;;
3597;SDS011;1813;52.016;8.714;2023-05-23T01:58:10;45.17;;;29.37;;
3597;SDS011;1813;52.016;8.714;2023-05-23T02:00:46;43.87;;;29.63;;
3597;SDS011;1813;52.016;8.714;2023-05-23T02:03:20;43.00;;;30.93;;
3597;SDS011;1813;52.016;8.714;2023-05-23T02:05:54;42.53;;;29.93;;
3597;SDS011;1813;52.016;8.714;2023-05-23T02:08:28;40.80;;;28.20;;
3597;SDS011;1813;52.016;8.714;2023-05-23T02:11:02;38.20;;;28.23;;
3597;SDS011;1813;52.016;8.714;2023-05-23T02:13:38;38.57;;;26.97;;
3597;SDS011;1813;52.016;8.714;2023-05-23T02:16:14;38.53;;;27.10;;
3597;SDS011;1813;52.016;8.714;2023-05-23T02:18:49;41.67;;;27.03;;
3597;SDS011;1813;52.016;8.714;2023-05-23T02:21:25;31.10;;;23.40;;
3597;SDS011;1813;52.016;8.714;2023-05-23T02:24:00;28.50;;;22.40;;
3597;SDS011;1813;52.016;8.714;2023-05-23T02:26:34;28.50;;;20.60;;
3597;SDS011;1813;52.016;8.714;2023-05-23T02:29:08;27.90;;;20.13;;
3597;SDS011;1813;52.016;8.714;2023-05-23T02:31:44;27.73;;;18.33;;
3597;SDS011;1813;52.016;8.714;2023-05-23T02:34:18;25.90;;;19.10;;
3597;SDS011;1813;52.016;8.714;2023-05-23T02:36:52;22.50;;;17.73;;
3597;SDS011;1813;52.016;8.714;2023-05-23T02:39:26;21.50;;;16.93;;
3597;SDS011;1813;52.016;8.714;2023-05-23T02:42:00;22.60;;;17.37;;
3597;SDS011;1813;52.016;8.714;2023-05-23T02:44:34;22.73;;;16.43;;
3597;SDS011;1813;52.016;8.714;2023-05-23T02:47:10;25.60;;;16.90;;
3597;SDS011;1813;52.016;8.714;2023-05-23T02:49:44;21.97;;;17.00;;
3597;SDS011;1813;52.016;8.714;2023-05-23T02:52:18;21.90;;;16.70;;
3597;SDS011;1813;52.016;8.714;2023-05-23T02:54:52;26.67;;;16.43;;
3597;SDS011;1813;52.016;8.714;2023-05-23T02:57:26;22.00;;;16.50;;
3597;SDS011;1813;52.016;8.714;2023-05-23T03:00:00;27.03;;;16.80;;
3597;SDS011;1813;52.016;8.714;2023-05-23T03:02:37;24.10;;;16.17;;
3597;SDS011;1813;52.016;8.714;2023-05-23T03:05:11;25.20;;;18.23;;
3597;SDS011;1813;52.016;8.714;2023-05-23T03:07:45;23.40;;;17.33;;
3597;SDS011;1813;52.016;8.714;2023-05-23T03:10:21;24.77;;;18.63;;
3597;SDS011;1813;52.016;8.714;2023-05-23T03:12:55;21.03;;;16.27;;
3597;SDS011;1813;52.016;8.714;2023-05-23T03:15:29;25.23;;;18.07;;
3597;SDS011;1813;52.016;8.714;2023-05-23T03:18:05;24.93;;;18.70;;
3597;SDS011;1813;52.016;8.714;2023-05-23T03:20:39;24.17;;;17.93;;
3597;SDS011;1813;52.016;8.714;2023-05-23T03:23:13;29.53;;;18.17;;
3597;SDS011;1813;52.016;8.714;2023-05-23T03:25:48;26.23;;;17.40;;
3597;SDS011;1813;52.016;8.714;2023-05-23T03:28:22;25.50;;;17.83;;
3597;SDS011;1813;52.016;8.714;2023-05-23T03:30:56;22.33;;;16.53;;
3597;SDS011;1813;52.016;8.714;2023-05-23T03:33:33;23.23;;;16.20;;
3597;SDS011;1813;52.016;8.714;2023-05-23T03:36:08;28.43;;;17.20;;
3597;SDS011;1813;52.016;8.714;2023-05-23T03:38:42;23.40;;;17.03;;
3597;SDS011;1813;52.016;8.714;2023-05-23T03:41:15;24.13;;;16.17;;
3597;SDS011;1813;52.016;8.714;2023-05-23T03:43:49;19.53;;;15.90;;
3597;SDS011;1813;52.016;8.714;2023-05-23T03:46:23;23.70;;;16.83;;
3597;SDS011;1813;52.016;8.714;2023-05-23T03:49:00;29.10;;;16.60;;
3597;SDS011;1813;52.016;8.714;2023-05-23T03:51:34;20.17;;;15.67;;
3597;SDS011;1813;52.016;8.714;2023-05-23T03:54:07;25.30;;;17.33;;
3597;SDS011;1813;52.016;8.714;2023-05-23T03:56:41;25.70;;;18.00;;
3597;SDS011;1813;52.016;8.714;2023-05-23T03:59:15;24.90;;;18.03;;
3597;SDS011;1813;52.016;8.714;2023-05-23T04:01:50;29.80;;;18.90;;
3597;SDS011;1813;52.016;8.714;2023-05-23T04:04:27;27.37;;;19.90;;
3597;SDS011;1813;52.016;8.714;2023-05-23T04:07:01;28.83;;;20.83;;
3597;SDS011;1813;52.016;8.714;2023-05-23T04:09:37;28.80;;;21.83;;
3597;SDS011;1813;52.016;8.714;2023-05-23T04:12:13;36.63;;;24.50;;
3597;SDS011;1813;52.016;8.714;2023-05-23T04:14:48;37.33;;;24.60;;
3597;SDS011;1813;52.016;8.714;2023-05-23T04:17:22;40.63;;;26.57;;
3597;SDS011;1813;52.016;8.714;2023-05-23T04:20:03;47.00;;;28.10;;
3597;SDS011;1813;52.016;8.714;2023-05-23T04:22:39;41.77;;;27.97;;
3597;SDS011;1813;52.016;8.714;2023-05-23T04:25:13;46.50;;;30.70;;
3597;SDS011;1813;52.016;8.714;2023-05-23T04:28:02;47.23;;;30.97;;
3597;SDS011;1813;52.016;8.714;2023-05-23T04:30:36;50.03;;;31.60;;
3597;SDS011;1813;52.016;8.714;2023-05-23T04:33:12;49.13;;;30.40;;
3597;SDS011;1813;52.016;8.714;2023-05-23T04:35:49;45.50;;;30.40;;
3597;SDS011;1813;52.016;8.714;2023-05-23T04:38:23;47.30;;;30.10;;
3597;SDS011;1813;52.016;8.714;2023-05-23T04:40:57;43.90;;;28.47;;
3597;SDS011;1813;52.016;8.714;2023-05-23T04:43:31;44.57;;;28.17;;
3597;SDS011;1813;52.016;8.714;2023-05-23T04:46:26;42.53;;;28.77;;
3597;SDS011;1813;52.016;8.714;2023-05-23T04:49:14;41.70;;;27.50;;
3597;SDS011;1813;52.016;8.714;2023-05-23T04:51:54;39.77;;;26.77;;
3597;SDS011;1813;52.016;8.714;2023-05-23T04:54:31;42.60;;;24.80;;
3597;SDS011;1813;52.016;8.714;2023-05-23T04:57:08;38.90;;;25.20;;
3597;SDS011;1813;52.016;8.714;2023-05-23T04:59:42;43.20;;;25.50;;
3597;SDS011;1813;52.016;8.714;2023-05-23T05:02:16;36.60;;;24.97;;
3597;SDS011;1813;52.016;8.714;2023-05-23T05:04:50;37.10;;;25.40;;
3597;SDS011;1813;52.016;8.714;2023-05-23T05:07:26;39.37;;;26.17;;
3597;SDS011;1813;52.016;8.714;2023-05-23T05:10:01;36.77;;;25.03;;
3597;SDS011;1813;52.016;8.714;2023-05-23T05:12:37;37.87;;;25.27;;
3597;SDS011;1813;52.016;8.714;2023-05-23T05:15:11;41.10;;;26.23;;
3597;SDS011;1813;52.016;8.714;2023-05-23T05:17:47;39.33;;;25.33;;
3597;SDS011;1813;52.016;8.714;2023-05-23T05:20:23;34.90;;;24.93;;
3597;SDS011;1813;52.016;8.714;2023-05-23T05:23:00;35.40;;;25.37;;
3597;SDS011;1813;52.016;8.714;2023-05-23T05:25:34;36.50;;;25.43;;
3597;SDS011;1813;52.016;8.714;2023-05-23T05:28:08;37.93;;;25.40;;
3597;SDS011;1813;52.016;8.714;2023-05-23T05:30:47;39.73;;;25.67;;
3597;SDS011;1813;52.016;8.714;2023-05-23T05:33:24;40.30;;;26.93;;
3597;SDS011;1813;52.016;8.714;2023-05-23T05:36:08;42.13;;;27.50;;
3597;SDS011;1813;52.016;8.714;2023-05-23T05:38:45;47.27;;;28.53;;
3597;SDS011;1813;52.016;8.714;2023-05-23T05:41:20;41.23;;;27.90;;
3597;SDS011;1813;52.016;8.714;2023-05-23T05:43:57;43.43;;;28.27;;
3597;SDS011;1813;52.016;8.714;2023-05-23T05:46:30;43.20;;;28.57;;
3597;SDS011;1813;52.016;8.714;2023-05-23T05:49:04;43.47;;;28.90;;
3597;SDS011;1813;52.016;8.714;2023-05-23T05:51:38;44.77;;;29.17;;
3597;SDS011;1813;52.016;8.714;2023-05-23T05:54:14;42.70;;;29.23;;
3597;SDS011;1813;52.016;8.714;2023-05-23T05:56:49;58.13;;;28.60;;
3597;SDS011;1813;52.016;8.714;2023-05-23T05:59:22;49.30;;;29.70;;
3597;SDS011;1813;52.016;8.714;2023-05-23T06:01:58;47.87;;;27.70;;
3597;SDS011;1813;52.016;8.714;2023-05-23T06:04:32;45.27;;;28.93;;
3597;SDS011;1813;52.016;8.714;2023-05-23T06:07:07;51.77;;;28.30;;
3597;SDS011;1813;52.016;8.714;2023-05-23T06:09:43;42.73;;;28.77;;
3597;SDS011;1813;52.016;8.714;2023-05-23T06:12:17;40.07;;;26.43;;
3597;SDS011;1813;52.016;8.714;2023-05-23T06:14:51;46.27;;;28.20;;
3597;SDS011;1813;52.016;8.714;2023-05-23T06:17:25;44.27;;;27.73;;
3597;SDS011;1813;52.016;8.714;2023-05-23T06:20:00;52.70;;;28.10;;
3597;SDS011;1813;52.016;8.714;2023-05-23T06:22:35;41.63;;;27.03;;
3597;SDS011;1813;52.016;8.714;2023-05-23T06:25:12;41.43;;;26.07;;
3597;SDS011;1813;52.016;8.714;2023-05-23T06:27:46;43.43;;;26.00;;
3597;SDS011;1813;52.016;8.714;2023-05-23T06:30:20;42.17;;;24.90;;
3597;SDS011;1813;52.016;8.714;2023-05-23T06:32:55;42.60;;;23.67;;
3597;SDS011;1813;52.016;8.714;2023-05-23T06:35:29;39.40;;;23.10;;
3597;SDS011;1813;52.016;8.714;2023-05-23T06:38:04;44.23;;;23.90;;
3597;SDS011;1813;52.016;8.714;2023-05-23T06:40:41;40.50;;;25.17;;
3597;SDS011;1813;52.016;8.714;2023-05-23T06:43:15;36.50;;;24.00;;
3597;SDS011;1813;52.016;8.714;2023-05-23T06:46:06;33.40;;;22.93;;
3597;SDS011;1813;52.016;8.714;2023-05-23T06:48:40;41.63;;;24.07;;
3597;SDS011;1813;52.016;8.714;2023-05-23T06:51:13;35.07;;;23.20;;
3597;SDS011;1813;52.016;8.714;2023-05-23T06:53:48;37.37;;;22.73;;
3597;SDS011;1813;52.016;8.714;2023-05-23T06:56:25;40.03;;;23.77;;
3597;SDS011;1813;52.016;8.714;2023-05-23T06:59:02;38.40;;;22.63;;
3597;SDS011;1813;52.016;8.714;2023-05-23T07:01:35;35.63;;;21.90;;
3597;SDS011;1813;52.016;8.714;2023-05-23T07:04:09;31.10;;;19.40;;
3597;SDS011;1813;52.016;8.714;2023-05-23T07:06:45;35.90;;;21.40;;
3597;SDS011;1813;52.016;8.714;2023-05-23T07:09:19;35.27;;;20.83;;
3597;SDS011;1813;52.016;8.714;2023-05-23T07:11:56;29.00;;;18.60;;
3597;SDS011;1813;52.016;8.714;2023-05-23T07:14:30;35.40;;;18.80;;
3597;SDS011;1813;52.016;8.714;2023-05-23T07:17:05;32.47;;;19.87;;
3597;SDS011;1813;52.016;8.714;2023-05-23T07:19:39;31.47;;;20.23;;
3597;SDS011;1813;52.016;8.714;2023-05-23T07:22:12;30.33;;;19.40;;
3597;SDS011;1813;52.016;8.714;2023-05-23T07:24:47;28.57;;;18.10;;
3597;SDS011;1813;52.016;8.714;2023-05-23T07:27:25;31.30;;;18.93;;
3597;SDS011;1813;52.016;8.714;2023-05-23T07:29:59;25.50;;;16.37;;
3597;SDS011;1813;52.016;8.714;2023-05-23T07:32:34;30.37;;;17.23;;
3597;SDS011;1813;52.016;8.714;2023-05-23T07:35:09;28.10;;;17.00;;
3597;SDS011;1813;52.016;8.714;2023-05-23T07:37:43;27.83;;;17.30;;
3597;SDS011;1813;52.016;8.714;2023-05-23T07:40:17;30.70;;;17.43;;
3597;SDS011;1813;52.016;8.714;2023-05-23T07:42:54;31.60;;;17.60;;
3597;SDS011;1813;52.016;8.714;2023-05-23T07:45:30;26.10;;;16.57;;
3597;SDS011;1813;52.016;8.714;2023-05-23T07:48:04;24.27;;;15.43;;
3597;SDS011;1813;52.016;8.714;2023-05-23T07:50:38;24.13;;;13.47;;
3597;SDS011;1813;52.016;8.714;2023-05-23T07:53:13;28.23;;;11.77;;
3597;SDS011;1813;52.016;8.714;2023-05-23T07:55:46;25.13;;;10.13;;
3597;SDS011;1813;52.016;8.714;2023-05-23T07:58:24;14.50;;;9.03;;
3597;SDS011;1813;52.016;8.714;2023-05-23T08:00:57;20.43;;;9.10;;
3597;SDS011;1813;52.016;8.714;2023-05-23T08:04:11;12.63;;;7.70;;
3597;SDS011;1813;52.016;8.714;2023-05-23T08:06:51;12.47;;;7.80;;
3597;SDS011;1813;52.016;8.714;2023-05-23T08:09:28;11.60;;;7.37;;
3597;SDS011;1813;52.016;8.714;2023-05-23T08:12:03;15.80;;;8.20;;
3597;SDS011;1813;52.016;8.714;2023-05-23T08:14:40;12.57;;;6.80;;
3597;SDS011;1813;52.016;8.714;2023-05-23T08:17:21;8.97;;;6.60;;
3597;SDS011;1813;52.016;8.714;2023-05-23T08:19:57;9.93;;;6.60;;
3597;SDS011;1813;52.016;8.714;2023-05-23T08:22:32;8.60;;;6.83;;
3597;SDS011;1813;52.016;8.714;2023-05-23T08:25:08;8.37;;;5.93;;
3597;SDS011;1813;52.016;8.714;2023-05-23T08:27:44;8.13;;;5.47;;
3597;SDS011;1813;52.016;8.714;2023-05-23T08:30:42;6.20;;;4.67;;
3597;SDS011;1813;52.016;8.714;2023-05-23T08:33:16;9.97;;;5.03;;
3597;SDS011;1813;52.016;8.714;2023-05-23T08:35:52;5.53;;;4.23;;
3597;SDS011;1813;52.016;8.714;2023-05-23T08:38:26;4.80;;;3.90;;
3597;SDS011;1813;52.016;8.714;2023-05-23T08:41:17;9.30;;;4.10;;
3597;SDS011;1813;52.016;8.714;2023-05-23T08:43:55;3.87;;;3.60;;
3597;SDS011;1813;52.016;8.714;2023-05-23T08:46:38;4.20;;;3.80;;
3597;SDS011;1813;52.016;8.714;2023-05-23T08:49:23;3.97;;;3.67;;
3597;SDS011;1813;52.016;8.714;2023-05-23T08:52:00;4.13;;;3.80;;
3597;SDS011;1813;52.016;8.714;2023-05-23T08:54:36;3.87;;;3.50;;
3597;SDS011;1813;52.016;8.714;2023-05-23T08:57:10;3.53;;;3.30;;
3597;SDS011;1813;52.016;8.714;2023-05-23T08:59:49;4.00;;;3.70;;
3597;SDS011;1813;52.016;8.714;2023-05-23T09:02:28;3.50;;;3.30;;
3597;SDS011;1813;52.016;8.714;2023-05-23T09:05:16;3.93;;;3.30;;
3597;SDS011;1813;52.016;8.714;2023-05-23T09:07:51;3.40;;;3.10;;
3597;SDS011;1813;52.016;8.714;2023-05-23T09:10:29;8.27;;;7.40;;
3597;SDS011;1813;52.016;8.714;2023-05-23T09:13:03;8.73;;;5.10;;
3597;SDS011;1813;52.016;8.714;2023-05-23T09:16:01;6.47;;;4.60;;
3597;SDS011;1813;52.016;8.714;2023-05-23T09:18:45;5.53;;;4.70;;
3597;SDS011;1813;52.016;8.714;2023-05-23T09:21:21;7.77;;;4.80;;
3597;SDS011;1813;52.016;8.714;2023-05-23T09:24:06;12.27;;;5.70;;
3597;SDS011;1813;52.016;8.714;2023-05-23T09:26:40;7.33;;;5.50;;
3597;SDS011;1813;52.016;8.714;2023-05-23T09:29:15;15.63;;;6.07;;
3597;SDS011;1813;52.016;8.714;2023-05-23T09:31:52;9.20;;;5.60;;
3597;SDS011;1813;52.016;8.714;2023-05-23T09:34:36;9.10;;;5.73;;
3597;SDS011;1813;52.016;8.714;2023-05-23T09:37:13;9.17;;;5.90;;
3597;SDS011;1813;52.016;8.714;2023-05-23T09:39:48;9.33;;;6.07;;
3597;SDS011;1813;52.016;8.714;2023-05-23T09:42:23;11.17;;;6.53;;
3597;SDS011;1813;52.016;8.714;2023-05-23T09:44:58;11.90;;;7.30;;
3597;SDS011;1813;52.016;8.714;2023-05-23T09:47:33;16.33;;;8.20;;
3597;SDS011;1813;52.016;8.714;2023-05-23T09:50:11;13.03;;;8.30;;
3597;SDS011;1813;52.016;8.714;2023-05-23T09:52:45;20.97;;;9.63;;
3597;SDS011;1813;52.016;8.714;2023-05-23T09:55:20;18.47;;;9.90;;
3597;SDS011;1813;52.016;8.714;2023-05-23T09:57:54;17.83;;;9.27;;
3597;SDS011;1813;52.016;8.714;2023-05-23T10:00:31;19.93;;;9.83;;
3597;SDS011;1813;52.016;8.714;2023-05-23T10:03:08;17.23;;;10.17;;
3597;SDS011;1813;52.016;8.714;2023-05-23T10:05:47;20.33;;;10.30;;
3597;SDS011;1813;52.016;8.714;2023-05-23T10:08:23;19.73;;;10.07;;
3597;SDS011;1813;52.016;8.714;2023-05-23T10:14:06;18.67;;;10.20;;
3597;SDS011;1813;52.016;8.714;2023-05-23T10:16:43;20.73;;;10.40;;
3597;SDS011;1813;52.016;8.714;2023-05-23T10:19:23;26.73;;;10.17;;
3597;SDS011;1813;52.016;8.714;2023-05-23T10:22:02;24.03;;;10.07;;
3597;SDS011;1813;52.016;8.714;2023-05-23T10:24:39;22.87;;;11.40;;
3597;SDS011;1813;52.016;8.714;2023-05-23T10:27:14;31.40;;;11.67;;
3597;SDS011;1813;52.016;8.714;2023-05-23T10:29:48;20.83;;;10.57;;
3597;SDS011;1813;52.016;8.714;2023-05-23T10:32:22;20.53;;;10.80;;
3597;SDS011;1813;52.016;8.714;2023-05-23T10:34:58;21.97;;;10.37;;
3597;SDS011;1813;52.016;8.714;2023-05-23T10:37:41;24.87;;;11.30;;
3597;SDS011;1813;52.016;8.714;2023-05-23T10:40:21;19.50;;;10.97;;
3597;SDS011;1813;52.016;8.714;2023-05-23T10:43:06;27.97;;;10.80;;
3597;SDS011;1813;52.016;8.714;2023-05-23T10:45:48;18.00;;;10.33;;
3597;SDS011;1813;52.016;8.714;2023-05-23T10:48:30;15.30;;;9.23;;
3597;SDS011;1813;52.016;8.714;2023-05-23T10:51:06;19.00;;;9.40;;
3597;SDS011;1813;52.016;8.714;2023-05-23T10:53:44;19.57;;;9.20;;
3597;SDS011;1813;52.016;8.714;2023-05-23T10:56:19;22.83;;;9.93;;
3597;SDS011;1813;52.016;8.714;2023-05-23T10:58:54;16.80;;;8.23;;
3597;SDS011;1813;52.016;8.714;2023-05-23T11:01:29;20.80;;;9.17;;
3597;SDS011;1813;52.016;8.714;2023-05-23T11:04:03;15.17;;;7.90;;
3597;SDS011;1813;52.016;8.714;2023-05-23T11:06:38;14.03;;;7.93;;
3597;SDS011;1813;52.016;8.714;2023-05-23T11:09:17;19.43;;;7.10;;
3597;SDS011;1813;52.016;8.714;2023-05-23T11:11:52;21.60;;;7.77;;
3597;SDS011;1813;52.016;8.714;2023-05-23T11:17:29;17.40;;;8.60;;
3597;SDS011;1813;52.016;8.714;2023-05-23T11:20:04;17.53;;;8.70;;
3597;SDS011;1813;52.016;8.714;2023-05-23T11:22:47;18.90;;;9.00;;
3597;SDS011;1813;52.016;8.714;2023-05-23T11:25:40;23.33;;;8.50;;
3597;SDS011;1813;52.016;8.714;2023-05-23T11:28:15;20.50;;;8.30;;
3597;SDS011;1813;52.016;8.714;2023-05-23T11:30:49;19.27;;;8.00;;
3597;SDS011;1813;52.016;8.714;2023-05-23T11:33:23;18.43;;;8.20;;
3597;SDS011;1813;52.016;8.714;2023-05-23T11:35:57;20.43;;;8.40;;
3597;SDS011;1813;52.016;8.714;2023-05-23T11:38:31;20.40;;;8.47;;
3597;SDS011;1813;52.016;8.714;2023-05-23T11:41:07;16.00;;;8.50;;
3597;SDS011;1813;52.016;8.714;2023-05-23T11:43:47;21.47;;;8.53;;
3597;SDS011;1813;52.016;8.714;2023-05-23T11:46:22;16.77;;;7.53;;
3597;SDS011;1813;52.016;8.714;2023-05-23T11:48:55;19.17;;;7.73;;
3597;SDS011;1813;52.016;8.714;2023-05-23T11:51:29;16.43;;;7.20;;
3597;SDS011;1813;52.016;8.714;2023-05-23T11:54:03;18.90;;;7.20;;
3597;SDS011;1813;52.016;8.714;2023-05-23T11:56:40;21.67;;;7.87;;
3597;SDS011;1813;52.016;8.714;2023-05-23T11:59:14;19.50;;;6.97;;
3597;SDS011;1813;52.016;8.714;2023-05-23T12:01:48;15.27;;;7.40;;
3597;SDS011;1813;52.016;8.714;2023-05-23T12:04:22;16.53;;;7.00;;
3597;SDS011;1813;52.016;8.714;2023-05-23T12:06:58;18.83;;;6.93;;
3597;SDS011;1813;52.016;8.714;2023-05-23T12:09:33;14.23;;;6.10;;
3597;SDS011;1813;52.016;8.714;2023-05-23T12:12:16;12.97;;;6.10;;
3597;SDS011;1813;52.016;8.714;2023-05-23T12:14:54;18.87;;;6.27;;
3597;SDS011;1813;52.016;8.714;2023-05-23T12:17:28;11.60;;;5.67;;
3597;SDS011;1813;52.016;8.714;2023-05-23T12:20:02;17.97;;;6.37;;
3597;SDS011;1813;52.016;8.714;2023-05-23T12:22:37;17.70;;;6.70;;
3597;SDS011;1813;52.016;8.714;2023-05-23T12:25:11;29.63;;;7.47;;
3597;SDS011;1813;52.016;8.714;2023-05-23T12:27:48;23.80;;;6.70;;
3597;SDS011;1813;52.016;8.714;2023-05-23T12:30:22;16.97;;;6.20;;
3597;SDS011;1813;52.016;8.714;2023-05-23T12:32:56;17.77;;;6.90;;
3597;SDS011;1813;52.016;8.714;2023-05-23T12:35:30;25.73;;;6.90;;
3597;SDS011;1813;52.016;8.714;2023-05-23T12:38:04;26.43;;;6.90;;
3597;SDS011;1813;52.016;8.714;2023-05-23T12:40:39;16.17;;;6.00;;
3597;SDS011;1813;52.016;8.714;2023-05-23T12:43:15;13.07;;;6.00;;
3597;SDS011;1813;52.016;8.714;2023-05-23T12:45:49;19.30;;;6.43;;
3597;SDS011;1813;52.016;8.714;2023-05-23T12:48:23;19.33;;;6.47;;
3597;SDS011;1813;52.016;8.714;2023-05-23T12:50:56;16.43;;;6.13;;
3597;SDS011;1813;52.016;8.714;2023-05-23T12:53:32;17.83;;;6.90;;
3597;SDS011;1813;52.016;8.714;2023-05-23T12:56:06;19.10;;;7.03;;
3597;SDS011;1813;52.016;8.714;2023-05-23T12:58:42;12.63;;;5.80;;
3597;SDS011;1813;52.016;8.714;2023-05-23T13:01:16;14.70;;;6.00;;
3597;SDS011;1813;52.016;8.714;2023-05-23T13:03:50;17.33;;;5.90;;
3597;SDS011;1813;52.016;8.714;2023-05-23T13:06:24;16.03;;;5.60;;
3597;SDS011;1813;52.016;8.714;2023-05-23T13:08:58;13.33;;;5.23;;
3597;SDS011;1813;52.016;8.714;2023-05-23T13:11:33;15.60;;;6.10;;
3597;SDS011;1813;52.016;8.714;2023-05-23T13:14:09;14.23;;;5.80;;
3597;SDS011;1813;52.016;8.714;2023-05-23T13:16:43;15.83;;;5.87;;
3597;SDS011;1813;52.016;8.714;2023-05-23T13:19:17;16.40;;;6.17;;
3597;SDS011;1813;52.016;8.714;2023-05-23T13:21:51;14.50;;;5.70;;
3597;SDS011;1813;52.016;8.714;2023-05-23T13:24:24;17.57;;;5.37;;
3597;SDS011;1813;52.016;8.714;2023-05-23T13:26:58;17.40;;;6.30;;
3597;SDS011;1813;52.016;8.714;2023-05-23T13:29:35;20.73;;;5.37;;
3597;SDS011;1813;52.016;8.714;2023-05-23T13:32:09;17.40;;;5.60;;
3597;SDS011;1813;52.016;8.714;2023-05-23T13:34:43;19.23;;;6.00;;
3597;SDS011;1813;52.016;8.714;2023-05-23T13:37:16;16.67;;;5.30;;
3597;SDS011;1813;52.016;8.714;2023-05-23T13:39:50;13.93;;;5.43;;
3597;SDS011;1813;52.016;8.714;2023-05-23T13:42:24;12.60;;;5.10;;
3597;SDS011;1813;52.016;8.714;2023-05-23T13:45:01;12.90;;;5.33;;
3597;SDS011;1813;52.016;8.714;2023-05-23T13:47:35;21.33;;;6.03;;
3597;SDS011;1813;52.016;8.714;2023-05-23T13:50:09;13.27;;;5.70;;
3597;SDS011;1813;52.016;8.714;2023-05-23T13:52:43;18.83;;;5.73;;
3597;SDS011;1813;52.016;8.714;2023-05-23T13:55:17;14.50;;;6.00;;
3597;SDS011;1813;52.016;8.714;2023-05-23T13:57:51;21.03;;;6.40;;
3597;SDS011;1813;52.016;8.714;2023-05-23T14:00:27;14.30;;;5.60;;
3597;SDS011;1813;52.016;8.714;2023-05-23T14:03:01;16.87;;;5.33;;
3597;SDS011;1813;52.016;8.714;2023-05-23T14:05:36;15.40;;;6.03;;
3597;SDS011;1813;52.016;8.714;2023-05-23T14:08:10;15.33;;;5.57;;
3597;SDS011;1813;52.016;8.714;2023-05-23T14:10:44;14.63;;;5.70;;
3597;SDS011;1813;52.016;8.714;2023-05-23T14:13:18;15.47;;;5.40;;
3597;SDS011;1813;52.016;8.714;2023-05-23T14:15:55;15.53;;;4.73;;
3597;SDS011;1813;52.016;8.714;2023-05-23T14:18:29;17.40;;;5.10;;
3597;SDS011;1813;52.016;8.714;2023-05-23T14:21:03;14.80;;;4.77;;
3597;SDS011;1813;52.016;8.714;2023-05-23T14:23:36;13.30;;;5.10;;
3597;SDS011;1813;52.016;8.714;2023-05-23T14:26:11;13.10;;;5.17;;
3597;SDS011;1813;52.016;8.714;2023-05-23T14:28:44;16.13;;;5.20;;
3597;SDS011;1813;52.016;8.714;2023-05-23T14:31:21;12.30;;;4.67;;
3597;SDS011;1813;52.016;8.714;2023-05-23T14:33:55;14.90;;;5.00;;
3597;SDS011;1813;52.016;8.714;2023-05-23T14:36:29;22.73;;;5.60;;
3597;SDS011;1813;52.016;8.714;2023-05-23T14:39:03;12.83;;;5.17;;
3597;SDS011;1813;52.016;8.714;2023-05-23T14:41:38;14.53;;;4.30;;
3597;SDS011;1813;52.016;8.714;2023-05-23T14:44:12;12.10;;;5.10;;
3597;SDS011;1813;52.016;8.714;2023-05-23T14:46:48;10.90;;;4.93;;
3597;SDS011;1813;52.016;8.714;2023-05-23T14:49:22;13.47;;;4.83;;
3597;SDS011;1813;52.016;8.714;2023-05-23T14:51:56;16.17;;;5.50;;
3597;SDS011;1813;52.016;8.714;2023-05-23T14:54:30;17.00;;;5.30;;
3597;SDS011;1813;52.016;8.714;2023-05-23T14:57:04;13.73;;;4.63;;
3597;SDS011;1813;52.016;8.714;2023-05-23T14:59:38;14.87;;;4.40;;
3597;SDS011;1813;52.016;8.714;2023-05-23T15:02:15;17.37;;;4.73;;
3597;SDS011;1813;52.016;8.714;2023-05-23T15:04:49;16.23;;;4.70;;
3597;SDS011;1813;52.016;8.714;2023-05-23T15:07:23;15.27;;;5.20;;
3597;SDS011;1813;52.016;8.714;2023-05-23T15:09:57;12.20;;;4.20;;
3597;SDS011;1813;52.016;8.714;2023-05-23T15:12:31;17.00;;;5.20;;
3597;SDS011;1813;52.016;8.714;2023-05-23T15:15:05;16.13;;;4.77;;
3597;SDS011;1813;52.016;8.714;2023-05-23T15:17:43;15.80;;;4.87;;
3597;SDS011;1813;52.016;8.714;2023-05-23T15:20:16;16.30;;;4.60;;
3597;SDS011;1813;52.016;8.714;2023-05-23T15:22:50;14.50;;;4.23;;
3597;SDS011;1813;52.016;8.714;2023-05-23T15:25:25;9.73;;;4.30;;
3597;SDS011;1813;52.016;8.714;2023-05-23T15:27:58;14.53;;;4.60;;
3597;SDS011;1813;52.016;8.714;2023-05-23T15:30:32;13.13;;;4.80;;
3597;SDS011;1813;52.016;8.714;2023-05-23T15:33:09;12.60;;;4.50;;
3597;SDS011;1813;52.016;8.714;2023-05-23T15:35:45;11.60;;;4.77;;
3597;SDS011;1813;52.016;8.714;2023-05-23T15:38:19;13.33;;;4.30;;
3597;SDS011;1813;52.016;8.714;2023-05-23T15:40:53;10.47;;;4.30;;
3597;SDS011;1813;52.016;8.714;2023-05-23T15:43:28;15.03;;;4.47;;
3597;SDS011;1813;52.016;8.714;2023-05-23T15:46:04;16.50;;;4.23;;
3597;SDS011;1813;52.016;8.714;2023-05-23T15:48:41;12.87;;;4.33;;
3597;SDS011;1813;52.016;8.714;2023-05-23T15:51:15;10.17;;;4.53;;
3597;SDS011;1813;52.016;8.714;2023-05-23T15:53:49;13.20;;;4.10;;